sensor_id;sensor_type;location;lat;lon;timestamp;P1;durP1;ratioP1;P2;durP2;ratioP2
13234;SDS011;6683;48.506;9.050;2023-01-28T00:02:35;8.47;;;6.43;;
13234;SDS011;6683;48.506;9.050;2023-01-28T00:05:38;8.07;;;6.10;;
13234;SDS011;6683;48.506;9.050;2023-01-28T00:08:40;8.83;;;5.60;;
13234;SDS011;6683;48.506;9.050;2023-01-28T00:11:43;8.97;;;6.27;;
13234;SDS011;6683;48.506;9.050;2023-01-28T00:14:45;8.33;;;6.20;;
13234;SDS011;6683;48.506;9.050;2023-01-28T00:17:49;9.67;;;6.40;;
13234;SDS011;6683;48.506;9.050;2023-01-28T00:20:56;10.13;;;6.13;;
13234;SDS011;6683;48.506;9.050;2023-01-28T00:24:00;8.03;;;5.87;;
13234;SDS011;6683;48.506;9.050;2023-01-28T00:27:02;9.47;;;6.43;;
13234;SDS011;6683;48.506;9.050;2023-01-28T00:30:05;8.07;;;5.57;;
13234;SDS011;6683;48.506;9.050;2023-01-28T00:33:11;8.67;;;5.97;;
13234;SDS011;6683;48.506;9.050;2023-01-28T00:36:13;7.83;;;5.97;;
13234;SDS011;6683;48.506;9.050;2023-01-28T00:39:16;9.37;;;6.77;;
13234;SDS011;6683;48.506;9.050;2023-01-28T00:42:19;8.47;;;5.97;;
13234;SDS011;6683;48.506;9.050;2023-01-28T00:45:22;8.73;;;6.00;;
13234;SDS011;6683;48.506;9.050;2023-01-28T00:48:25;11.87;;;6.87;;
13234;SDS011;6683;48.506;9.050;2023-01-28T00:51:27;7.87;;;5.93;;
13234;SDS011;6683;48.506;9.050;2023-01-28T00:54:30;7.73;;;5.87;;
13234;SDS011;6683;48.506;9.050;2023-01-28T00:57:32;8.87;;;6.20;;
13234;SDS011;6683;48.506;9.050;2023-01-28T01:00:35;8.47;;;6.07;;
13234;SDS011;6683;48.506;9.050;2023-01-28T01:03:39;8.17;;;6.13;;
13234;SDS011;6683;48.506;9.050;2023-01-28T01:06:41;7.73;;;6.37;;
13234;SDS011;6683;48.506;9.050;2023-01-28T01:09:44;9.07;;;6.17;;
13234;SDS011;6683;48.506;9.050;2023-01-28T01:12:47;8.17;;;6.13;;
13234;SDS011;6683;48.506;9.050;2023-01-28T01:15:59;9.03;;;6.27;;
13234;SDS011;6683;48.506;9.050;2023-01-28T01:19:04;6.73;;;5.53;;
13234;SDS011;6683;48.506;9.050;2023-01-28T01:22:08;8.93;;;5.77;;
13234;SDS011;6683;48.506;9.050;2023-01-28T01:25:11;9.00;;;6.30;;
13234;SDS011;6683;48.506;9.050;2023-01-28T01:28:18;8.80;;;6.27;;
13234;SDS011;6683;48.506;9.050;2023-01-28T01:32:00;9.07;;;6.20;;
13234;SDS011;6683;48.506;9.050;2023-01-28T01:35:05;7.53;;;5.70;;
13234;SDS011;6683;48.506;9.050;2023-01-28T01:38:10;7.50;;;5.63;;
13234;SDS011;6683;48.506;9.050;2023-01-28T01:41:15;9.00;;;6.07;;
13234;SDS011;6683;48.506;9.050;2023-01-28T01:48:00;7.10;;;5.67;;
13234;SDS011;6683;48.506;9.050;2023-01-28T01:51:09;8.90;;;6.17;;
13234;SDS011;6683;48.506;9.050;2023-01-28T01:54:15;8.47;;;6.17;;
13234;SDS011;6683;48.506;9.050;2023-01-28T01:57:20;9.10;;;6.10;;
13234;SDS011;6683;48.506;9.050;2023-01-28T02:00:26;9.20;;;6.30;;
13234;SDS011;6683;48.506;9.050;2023-01-28T02:03:30;7.87;;;5.30;;
13234;SDS011;6683;48.506;9.050;2023-01-28T02:06:44;7.50;;;5.53;;
13234;SDS011;6683;48.506;9.050;2023-01-28T02:09:47;8.40;;;6.03;;
13234;SDS011;6683;48.506;9.050;2023-01-28T02:12:51;7.53;;;5.60;;
13234;SDS011;6683;48.506;9.050;2023-01-28T02:15:57;8.13;;;5.90;;
13234;SDS011;6683;48.506;9.050;2023-01-28T02:19:00;7.80;;;5.67;;
13234;SDS011;6683;48.506;9.050;2023-01-28T02:22:18;8.17;;;5.43;;
13234;SDS011;6683;48.506;9.050;2023-01-28T02:25:50;8.17;;;5.13;;
13234;SDS011;6683;48.506;9.050;2023-01-28T02:29:23;8.87;;;5.80;;
13234;SDS011;6683;48.506;9.050;2023-01-28T02:32:35;8.47;;;5.63;;
13234;SDS011;6683;48.506;9.050;2023-01-28T02:35:46;9.37;;;5.97;;
13234;SDS011;6683;48.506;9.050;2023-01-28T02:38:52;8.97;;;5.90;;
13234;SDS011;6683;48.506;9.050;2023-01-28T02:42:01;9.23;;;6.17;;
13234;SDS011;6683;48.506;9.050;2023-01-28T02:45:15;9.20;;;6.20;;
13234;SDS011;6683;48.506;9.050;2023-01-28T02:48:21;9.53;;;5.93;;
13234;SDS011;6683;48.506;9.050;2023-01-28T02:51:25;7.70;;;5.30;;
13234;SDS011;6683;48.506;9.050;2023-01-28T02:54:40;8.57;;;5.20;;
13234;SDS011;6683;48.506;9.050;2023-01-28T02:57:57;7.70;;;5.07;;
13234;SDS011;6683;48.506;9.050;2023-01-28T03:01:14;7.50;;;5.33;;
13234;SDS011;6683;48.506;9.050;2023-01-28T03:04:25;8.30;;;5.37;;
13234;SDS011;6683;48.506;9.050;2023-01-28T03:07:33;7.20;;;5.20;;
13234;SDS011;6683;48.506;9.050;2023-01-28T03:10:38;7.27;;;5.10;;
13234;SDS011;6683;48.506;9.050;2023-01-28T03:13:39;7.37;;;4.97;;
13234;SDS011;6683;48.506;9.050;2023-01-28T03:17:01;6.87;;;5.40;;
13234;SDS011;6683;48.506;9.050;2023-01-28T03:20:23;7.73;;;5.17;;
13234;SDS011;6683;48.506;9.050;2023-01-28T03:23:47;9.30;;;5.47;;
13234;SDS011;6683;48.506;9.050;2023-01-28T03:27:13;6.67;;;4.77;;
13234;SDS011;6683;48.506;9.050;2023-01-28T03:30:41;9.00;;;5.27;;
13234;SDS011;6683;48.506;9.050;2023-01-28T03:34:06;8.07;;;5.13;;
13234;SDS011;6683;48.506;9.050;2023-01-28T03:37:27;7.13;;;4.93;;
13234;SDS011;6683;48.506;9.050;2023-01-28T03:40:31;6.83;;;5.10;;
13234;SDS011;6683;48.506;9.050;2023-01-28T03:43:33;6.50;;;4.93;;
13234;SDS011;6683;48.506;9.050;2023-01-28T03:46:36;7.83;;;5.33;;
13234;SDS011;6683;48.506;9.050;2023-01-28T03:49:41;7.97;;;5.20;;
13234;SDS011;6683;48.506;9.050;2023-01-28T03:52:45;7.63;;;5.10;;
13234;SDS011;6683;48.506;9.050;2023-01-28T03:55:48;8.37;;;6.07;;
13234;SDS011;6683;48.506;9.050;2023-01-28T03:58:52;7.67;;;5.40;;
13234;SDS011;6683;48.506;9.050;2023-01-28T04:01:56;6.83;;;5.50;;
13234;SDS011;6683;48.506;9.050;2023-01-28T04:05:00;8.33;;;5.73;;
13234;SDS011;6683;48.506;9.050;2023-01-28T04:08:11;7.20;;;5.47;;
13234;SDS011;6683;48.506;9.050;2023-01-28T04:11:14;7.77;;;5.27;;
13234;SDS011;6683;48.506;9.050;2023-01-28T04:14:18;7.90;;;5.67;;
13234;SDS011;6683;48.506;9.050;2023-01-28T04:17:21;8.37;;;5.90;;
13234;SDS011;6683;48.506;9.050;2023-01-28T04:20:25;7.57;;;5.07;;
13234;SDS011;6683;48.506;9.050;2023-01-28T04:23:28;7.97;;;5.40;;
13234;SDS011;6683;48.506;9.050;2023-01-28T04:26:30;8.13;;;5.40;;
13234;SDS011;6683;48.506;9.050;2023-01-28T04:29:33;7.40;;;5.17;;
13234;SDS011;6683;48.506;9.050;2023-01-28T04:32:35;6.87;;;5.27;;
13234;SDS011;6683;48.506;9.050;2023-01-28T04:35:39;7.00;;;5.00;;
13234;SDS011;6683;48.506;9.050;2023-01-28T04:38:42;7.80;;;5.20;;
13234;SDS011;6683;48.506;9.050;2023-01-28T04:41:44;8.93;;;5.50;;
13234;SDS011;6683;48.506;9.050;2023-01-28T04:44:47;7.17;;;4.83;;
13234;SDS011;6683;48.506;9.050;2023-01-28T04:47:50;7.47;;;5.00;;
13234;SDS011;6683;48.506;9.050;2023-01-28T04:50:54;8.63;;;5.07;;
13234;SDS011;6683;48.506;9.050;2023-01-28T04:53:56;6.90;;;5.00;;
13234;SDS011;6683;48.506;9.050;2023-01-28T04:56:58;7.40;;;5.00;;
13234;SDS011;6683;48.506;9.050;2023-01-28T05:00:01;6.73;;;4.80;;
13234;SDS011;6683;48.506;9.050;2023-01-28T05:03:04;6.40;;;4.53;;
13234;SDS011;6683;48.506;9.050;2023-01-28T05:06:08;6.67;;;4.80;;
13234;SDS011;6683;48.506;9.050;2023-01-28T05:09:11;7.83;;;5.13;;
13234;SDS011;6683;48.506;9.050;2023-01-28T05:12:13;7.80;;;5.20;;
13234;SDS011;6683;48.506;9.050;2023-01-28T05:15:15;6.13;;;4.40;;
13234;SDS011;6683;48.506;9.050;2023-01-28T05:18:19;6.33;;;4.53;;
13234;SDS011;6683;48.506;9.050;2023-01-28T05:21:23;6.97;;;5.07;;
13234;SDS011;6683;48.506;9.050;2023-01-28T05:24:25;7.73;;;5.17;;
13234;SDS011;6683;48.506;9.050;2023-01-28T05:27:27;8.33;;;5.03;;
13234;SDS011;6683;48.506;9.050;2023-01-28T05:30:31;6.57;;;4.80;;
13234;SDS011;6683;48.506;9.050;2023-01-28T05:33:34;6.57;;;4.97;;
13234;SDS011;6683;48.506;9.050;2023-01-28T05:36:38;7.03;;;5.07;;
13234;SDS011;6683;48.506;9.050;2023-01-28T05:39:40;6.70;;;4.63;;
13234;SDS011;6683;48.506;9.050;2023-01-28T05:42:43;6.00;;;4.63;;
13234;SDS011;6683;48.506;9.050;2023-01-28T05:45:46;6.83;;;4.97;;
13234;SDS011;6683;48.506;9.050;2023-01-28T05:48:49;7.70;;;5.20;;
13234;SDS011;6683;48.506;9.050;2023-01-28T05:51:52;6.60;;;4.87;;
13234;SDS011;6683;48.506;9.050;2023-01-28T05:54:54;6.53;;;4.80;;
13234;SDS011;6683;48.506;9.050;2023-01-28T05:57:57;6.63;;;4.57;;
13234;SDS011;6683;48.506;9.050;2023-01-28T06:01:00;6.67;;;4.90;;
13234;SDS011;6683;48.506;9.050;2023-01-28T06:04:03;7.33;;;5.60;;
13234;SDS011;6683;48.506;9.050;2023-01-28T06:07:07;7.33;;;5.20;;
13234;SDS011;6683;48.506;9.050;2023-01-28T06:10:09;6.20;;;4.93;;
13234;SDS011;6683;48.506;9.050;2023-01-28T06:13:12;6.80;;;4.80;;
13234;SDS011;6683;48.506;9.050;2023-01-28T06:16:15;5.83;;;4.57;;
13234;SDS011;6683;48.506;9.050;2023-01-28T06:19:17;6.63;;;5.00;;
13234;SDS011;6683;48.506;9.050;2023-01-28T06:22:21;6.63;;;4.50;;
13234;SDS011;6683;48.506;9.050;2023-01-28T06:25:23;6.03;;;4.63;;
13234;SDS011;6683;48.506;9.050;2023-01-28T06:28:26;7.03;;;5.40;;
13234;SDS011;6683;48.506;9.050;2023-01-28T06:31:28;7.30;;;5.17;;
13234;SDS011;6683;48.506;9.050;2023-01-28T06:34:31;6.13;;;4.63;;
13234;SDS011;6683;48.506;9.050;2023-01-28T06:37:35;6.97;;;5.43;;
13234;SDS011;6683;48.506;9.050;2023-01-28T06:40:38;7.27;;;5.03;;
13234;SDS011;6683;48.506;9.050;2023-01-28T06:43:41;7.43;;;5.07;;
13234;SDS011;6683;48.506;9.050;2023-01-28T06:46:43;6.67;;;5.47;;
13234;SDS011;6683;48.506;9.050;2023-01-28T06:49:46;7.13;;;5.13;;
13234;SDS011;6683;48.506;9.050;2023-01-28T06:52:50;8.93;;;5.07;;
13234;SDS011;6683;48.506;9.050;2023-01-28T06:55:52;8.20;;;5.50;;
13234;SDS011;6683;48.506;9.050;2023-01-28T06:58:55;7.00;;;4.93;;
13234;SDS011;6683;48.506;9.050;2023-01-28T07:01:58;7.17;;;4.60;;
13234;SDS011;6683;48.506;9.050;2023-01-28T07:05:00;7.40;;;5.03;;
13234;SDS011;6683;48.506;9.050;2023-01-28T07:08:05;6.40;;;4.40;;
13234;SDS011;6683;48.506;9.050;2023-01-28T07:11:07;6.60;;;4.43;;
13234;SDS011;6683;48.506;9.050;2023-01-28T07:14:09;6.60;;;4.97;;
13234;SDS011;6683;48.506;9.050;2023-01-28T07:17:12;6.43;;;4.83;;
13234;SDS011;6683;48.506;9.050;2023-01-28T07:20:15;6.10;;;4.40;;
13234;SDS011;6683;48.506;9.050;2023-01-28T07:23:20;6.67;;;4.77;;
13234;SDS011;6683;48.506;9.050;2023-01-28T07:26:22;8.07;;;5.00;;
13234;SDS011;6683;48.506;9.050;2023-01-28T07:29:24;7.17;;;5.47;;
13234;SDS011;6683;48.506;9.050;2023-01-28T07:32:27;6.97;;;5.50;;
13234;SDS011;6683;48.506;9.050;2023-01-28T07:35:29;8.30;;;6.47;;
13234;SDS011;6683;48.506;9.050;2023-01-28T07:38:34;6.47;;;5.17;;
13234;SDS011;6683;48.506;9.050;2023-01-28T07:41:36;7.10;;;5.10;;
13234;SDS011;6683;48.506;9.050;2023-01-28T07:44:39;5.37;;;4.50;;
13234;SDS011;6683;48.506;9.050;2023-01-28T07:47:42;9.23;;;5.60;;
13234;SDS011;6683;48.506;9.050;2023-01-28T07:50:44;7.37;;;4.93;;
13234;SDS011;6683;48.506;9.050;2023-01-28T07:53:50;8.37;;;5.60;;
13234;SDS011;6683;48.506;9.050;2023-01-28T07:56:52;6.77;;;5.07;;
13234;SDS011;6683;48.506;9.050;2023-01-28T07:59:54;7.73;;;5.50;;
13234;SDS011;6683;48.506;9.050;2023-01-28T08:02:57;7.97;;;5.47;;
13234;SDS011;6683;48.506;9.050;2023-01-28T08:06:01;8.93;;;5.60;;
13234;SDS011;6683;48.506;9.050;2023-01-28T08:09:05;6.87;;;5.47;;
13234;SDS011;6683;48.506;9.050;2023-01-28T08:12:08;6.77;;;5.30;;
13234;SDS011;6683;48.506;9.050;2023-01-28T08:15:11;6.83;;;4.83;;
13234;SDS011;6683;48.506;9.050;2023-01-28T08:18:14;8.07;;;5.80;;
13234;SDS011;6683;48.506;9.050;2023-01-28T08:21:17;6.50;;;5.00;;
13234;SDS011;6683;48.506;9.050;2023-01-28T08:24:21;5.67;;;4.70;;
13234;SDS011;6683;48.506;9.050;2023-01-28T08:27:23;8.40;;;5.67;;
13234;SDS011;6683;48.506;9.050;2023-01-28T08:30:26;7.67;;;5.83;;
13234;SDS011;6683;48.506;9.050;2023-01-28T08:33:29;7.63;;;5.90;;
13234;SDS011;6683;48.506;9.050;2023-01-28T08:36:31;8.17;;;6.03;;
13234;SDS011;6683;48.506;9.050;2023-01-28T08:39:35;6.50;;;5.23;;
13234;SDS011;6683;48.506;9.050;2023-01-28T08:42:38;8.20;;;5.43;;
13234;SDS011;6683;48.506;9.050;2023-01-28T08:45:40;7.10;;;5.77;;
13234;SDS011;6683;48.506;9.050;2023-01-28T08:48:43;6.53;;;5.80;;
13234;SDS011;6683;48.506;9.050;2023-01-28T08:51:46;8.17;;;5.77;;
13234;SDS011;6683;48.506;9.050;2023-01-28T08:54:50;7.70;;;6.00;;
13234;SDS011;6683;48.506;9.050;2023-01-28T08:57:53;7.20;;;5.43;;
13234;SDS011;6683;48.506;9.050;2023-01-28T09:00:56;8.23;;;5.77;;
13234;SDS011;6683;48.506;9.050;2023-01-28T09:03:59;7.67;;;5.70;;
13234;SDS011;6683;48.506;9.050;2023-01-28T09:07:01;9.63;;;6.33;;
13234;SDS011;6683;48.506;9.050;2023-01-28T09:10:06;7.77;;;5.43;;
13234;SDS011;6683;48.506;9.050;2023-01-28T09:13:12;5.70;;;5.07;;
13234;SDS011;6683;48.506;9.050;2023-01-28T09:16:16;8.40;;;5.90;;
13234;SDS011;6683;48.506;9.050;2023-01-28T09:19:19;9.17;;;6.67;;
13234;SDS011;6683;48.506;9.050;2023-01-28T09:22:21;6.23;;;5.43;;
13234;SDS011;6683;48.506;9.050;2023-01-28T09:25:25;7.80;;;5.80;;
13234;SDS011;6683;48.506;9.050;2023-01-28T09:28:27;7.17;;;5.77;;
13234;SDS011;6683;48.506;9.050;2023-01-28T09:31:30;7.60;;;6.10;;
13234;SDS011;6683;48.506;9.050;2023-01-28T09:34:33;10.03;;;6.63;;
13234;SDS011;6683;48.506;9.050;2023-01-28T09:37:36;6.90;;;5.53;;
13234;SDS011;6683;48.506;9.050;2023-01-28T09:40:41;8.13;;;5.87;;
13234;SDS011;6683;48.506;9.050;2023-01-28T09:47:15;6.33;;;5.13;;
13234;SDS011;6683;48.506;9.050;2023-01-28T09:50:25;8.50;;;6.10;;
13234;SDS011;6683;48.506;9.050;2023-01-28T09:53:33;6.93;;;5.60;;
13234;SDS011;6683;48.506;9.050;2023-01-28T09:56:44;6.43;;;5.23;;
13234;SDS011;6683;48.506;9.050;2023-01-28T09:59:51;7.70;;;5.90;;
13234;SDS011;6683;48.506;9.050;2023-01-28T10:06:41;7.93;;;6.13;;
13234;SDS011;6683;48.506;9.050;2023-01-28T10:09:56;7.97;;;5.70;;
13234;SDS011;6683;48.506;9.050;2023-01-28T10:13:13;7.40;;;6.20;;
13234;SDS011;6683;48.506;9.050;2023-01-28T10:16:30;7.37;;;6.13;;
13234;SDS011;6683;48.506;9.050;2023-01-28T10:19:40;7.97;;;5.93;;
13234;SDS011;6683;48.506;9.050;2023-01-28T10:22:51;7.53;;;5.83;;
13234;SDS011;6683;48.506;9.050;2023-01-28T10:25:59;7.47;;;5.77;;
13234;SDS011;6683;48.506;9.050;2023-01-28T10:29:12;7.37;;;6.03;;
13234;SDS011;6683;48.506;9.050;2023-01-28T10:32:21;9.07;;;6.23;;
13234;SDS011;6683;48.506;9.050;2023-01-28T10:35:34;6.97;;;5.47;;
13234;SDS011;6683;48.506;9.050;2023-01-28T10:38:40;7.73;;;6.17;;
13234;SDS011;6683;48.506;9.050;2023-01-28T10:41:42;9.40;;;6.50;;
13234;SDS011;6683;48.506;9.050;2023-01-28T10:44:46;7.63;;;6.00;;
13234;SDS011;6683;48.506;9.050;2023-01-28T10:47:52;7.77;;;6.30;;
13234;SDS011;6683;48.506;9.050;2023-01-28T10:51:02;6.83;;;5.70;;
13234;SDS011;6683;48.506;9.050;2023-01-28T10:54:17;7.10;;;6.17;;
13234;SDS011;6683;48.506;9.050;2023-01-28T10:57:22;8.20;;;5.80;;
13234;SDS011;6683;48.506;9.050;2023-01-28T11:00:27;8.63;;;5.60;;
13234;SDS011;6683;48.506;9.050;2023-01-28T11:03:34;7.30;;;5.70;;
13234;SDS011;6683;48.506;9.050;2023-01-28T11:06:38;9.20;;;6.20;;
13234;SDS011;6683;48.506;9.050;2023-01-28T11:09:43;8.23;;;6.20;;
13234;SDS011;6683;48.506;9.050;2023-01-28T11:12:53;12.93;;;7.20;;
13234;SDS011;6683;48.506;9.050;2023-01-28T11:15:59;10.43;;;7.00;;
13234;SDS011;6683;48.506;9.050;2023-01-28T11:19:04;9.77;;;7.13;;
13234;SDS011;6683;48.506;9.050;2023-01-28T11:22:13;8.00;;;6.00;;
13234;SDS011;6683;48.506;9.050;2023-01-28T11:25:29;10.20;;;6.13;;
13234;SDS011;6683;48.506;9.050;2023-01-28T11:28:34;7.73;;;6.33;;
13234;SDS011;6683;48.506;9.050;2023-01-28T11:31:42;7.60;;;6.23;;
13234;SDS011;6683;48.506;9.050;2023-01-28T11:34:49;8.20;;;6.17;;
13234;SDS011;6683;48.506;9.050;2023-01-28T11:37:52;11.40;;;5.87;;
13234;SDS011;6683;48.506;9.050;2023-01-28T11:40:55;7.97;;;6.37;;
13234;SDS011;6683;48.506;9.050;2023-01-28T11:44:01;9.50;;;7.13;;
13234;SDS011;6683;48.506;9.050;2023-01-28T11:47:23;7.50;;;5.50;;
13234;SDS011;6683;48.506;9.050;2023-01-28T11:50:45;10.00;;;5.37;;
13234;SDS011;6683;48.506;9.050;2023-01-28T11:53:57;7.97;;;6.10;;
13234;SDS011;6683;48.506;9.050;2023-01-28T11:57:33;8.17;;;5.90;;
13234;SDS011;6683;48.506;9.050;2023-01-28T12:00:43;6.80;;;5.30;;
13234;SDS011;6683;48.506;9.050;2023-01-28T12:04:05;9.13;;;6.60;;
13234;SDS011;6683;48.506;9.050;2023-01-28T12:07:27;11.87;;;6.60;;
13234;SDS011;6683;48.506;9.050;2023-01-28T12:10:44;7.53;;;6.03;;
13234;SDS011;6683;48.506;9.050;2023-01-28T12:13:57;9.33;;;6.00;;
13234;SDS011;6683;48.506;9.050;2023-01-28T12:17:16;7.47;;;5.83;;
13234;SDS011;6683;48.506;9.050;2023-01-28T12:20:34;11.53;;;7.20;;
13234;SDS011;6683;48.506;9.050;2023-01-28T12:23:46;8.00;;;5.97;;
13234;SDS011;6683;48.506;9.050;2023-01-28T12:27:07;9.57;;;6.47;;
13234;SDS011;6683;48.506;9.050;2023-01-28T12:30:29;9.60;;;6.20;;
13234;SDS011;6683;48.506;9.050;2023-01-28T12:33:50;12.03;;;7.00;;
13234;SDS011;6683;48.506;9.050;2023-01-28T12:37:13;9.57;;;6.50;;
13234;SDS011;6683;48.506;9.050;2023-01-28T12:44:02;12.17;;;6.60;;
13234;SDS011;6683;48.506;9.050;2023-01-28T12:47:07;9.97;;;6.53;;
13234;SDS011;6683;48.506;9.050;2023-01-28T12:50:15;8.57;;;5.90;;
13234;SDS011;6683;48.506;9.050;2023-01-28T12:53:25;10.40;;;6.60;;
13234;SDS011;6683;48.506;9.050;2023-01-28T12:56:38;8.13;;;5.63;;
13234;SDS011;6683;48.506;9.050;2023-01-28T12:59:45;9.40;;;6.13;;
13234;SDS011;6683;48.506;9.050;2023-01-28T13:02:54;8.07;;;5.63;;
13234;SDS011;6683;48.506;9.050;2023-01-28T13:06:08;8.80;;;6.30;;
13234;SDS011;6683;48.506;9.050;2023-01-28T13:09:17;8.70;;;5.73;;
13234;SDS011;6683;48.506;9.050;2023-01-28T13:12:21;9.07;;;6.17;;
13234;SDS011;6683;48.506;9.050;2023-01-28T13:15:24;9.97;;;6.50;;
13234;SDS011;6683;48.506;9.050;2023-01-28T13:18:34;7.53;;;5.80;;
13234;SDS011;6683;48.506;9.050;2023-01-28T13:21:45;9.07;;;5.80;;
13234;SDS011;6683;48.506;9.050;2023-01-28T13:24:50;7.03;;;5.80;;
13234;SDS011;6683;48.506;9.050;2023-01-28T13:27:53;8.57;;;6.33;;
13234;SDS011;6683;48.506;9.050;2023-01-28T13:31:02;10.17;;;6.90;;
13234;SDS011;6683;48.506;9.050;2023-01-28T13:34:08;9.87;;;6.40;;
13234;SDS011;6683;48.506;9.050;2023-01-28T13:37:33;8.97;;;6.03;;
13234;SDS011;6683;48.506;9.050;2023-01-28T13:40:41;8.90;;;6.50;;
13234;SDS011;6683;48.506;9.050;2023-01-28T13:43:53;8.37;;;6.40;;
13234;SDS011;6683;48.506;9.050;2023-01-28T13:46:58;10.17;;;6.73;;
13234;SDS011;6683;48.506;9.050;2023-01-28T13:50:15;9.50;;;6.53;;
13234;SDS011;6683;48.506;9.050;2023-01-28T13:53:33;10.23;;;6.30;;
13234;SDS011;6683;48.506;9.050;2023-01-28T13:56:51;9.90;;;6.53;;
13234;SDS011;6683;48.506;9.050;2023-01-28T14:00:12;9.33;;;6.53;;
13234;SDS011;6683;48.506;9.050;2023-01-28T14:03:31;12.17;;;7.73;;
13234;SDS011;6683;48.506;9.050;2023-01-28T14:07:09;9.73;;;6.70;;
13234;SDS011;6683;48.506;9.050;2023-01-28T14:10:34;8.73;;;6.30;;
13234;SDS011;6683;48.506;9.050;2023-01-28T14:13:53;8.33;;;5.80;;
13234;SDS011;6683;48.506;9.050;2023-01-28T14:17:23;10.30;;;6.67;;
13234;SDS011;6683;48.506;9.050;2023-01-28T14:20:37;11.07;;;7.37;;
13234;SDS011;6683;48.506;9.050;2023-01-28T14:23:44;9.93;;;6.70;;
13234;SDS011;6683;48.506;9.050;2023-01-28T14:26:52;10.20;;;7.70;;
13234;SDS011;6683;48.506;9.050;2023-01-28T14:30:07;9.27;;;6.37;;
13234;SDS011;6683;48.506;9.050;2023-01-28T14:33:20;8.97;;;6.73;;
13234;SDS011;6683;48.506;9.050;2023-01-28T14:36:23;9.87;;;7.00;;
13234;SDS011;6683;48.506;9.050;2023-01-28T14:39:26;10.97;;;7.23;;
13234;SDS011;6683;48.506;9.050;2023-01-28T14:42:34;8.50;;;6.40;;
13234;SDS011;6683;48.506;9.050;2023-01-28T14:45:48;9.20;;;6.93;;
13234;SDS011;6683;48.506;9.050;2023-01-28T14:49:11;9.70;;;6.93;;
13234;SDS011;6683;48.506;9.050;2023-01-28T14:52:34;9.30;;;6.70;;
13234;SDS011;6683;48.506;9.050;2023-01-28T14:55:58;9.00;;;6.63;;
13234;SDS011;6683;48.506;9.050;2023-01-28T14:59:12;9.10;;;7.03;;
13234;SDS011;6683;48.506;9.050;2023-01-28T15:02:21;9.90;;;6.93;;
13234;SDS011;6683;48.506;9.050;2023-01-28T15:05:26;9.57;;;6.57;;
13234;SDS011;6683;48.506;9.050;2023-01-28T15:08:30;13.47;;;6.20;;
13234;SDS011;6683;48.506;9.050;2023-01-28T15:11:35;8.70;;;6.27;;
13234;SDS011;6683;48.506;9.050;2023-01-28T15:14:40;9.37;;;6.57;;
13234;SDS011;6683;48.506;9.050;2023-01-28T15:17:45;8.90;;;6.40;;
13234;SDS011;6683;48.506;9.050;2023-01-28T15:20:48;9.03;;;6.00;;
13234;SDS011;6683;48.506;9.050;2023-01-28T15:23:54;9.43;;;5.63;;
13234;SDS011;6683;48.506;9.050;2023-01-28T15:27:00;7.27;;;4.97;;
13234;SDS011;6683;48.506;9.050;2023-01-28T15:30:17;5.50;;;4.60;;
13234;SDS011;6683;48.506;9.050;2023-01-28T15:33:26;6.93;;;4.80;;
13234;SDS011;6683;48.506;9.050;2023-01-28T15:36:28;6.00;;;3.97;;
13234;SDS011;6683;48.506;9.050;2023-01-28T15:39:32;5.77;;;4.07;;
13234;SDS011;6683;48.506;9.050;2023-01-28T15:42:35;6.37;;;3.80;;
13234;SDS011;6683;48.506;9.050;2023-01-28T15:45:39;5.00;;;3.93;;
13234;SDS011;6683;48.506;9.050;2023-01-28T15:48:49;4.83;;;3.50;;
13234;SDS011;6683;48.506;9.050;2023-01-28T15:51:58;5.23;;;3.73;;
13234;SDS011;6683;48.506;9.050;2023-01-28T15:55:02;4.67;;;3.77;;
13234;SDS011;6683;48.506;9.050;2023-01-28T15:58:19;4.87;;;3.73;;
13234;SDS011;6683;48.506;9.050;2023-01-28T16:01:29;4.53;;;3.20;;
13234;SDS011;6683;48.506;9.050;2023-01-28T16:04:32;6.13;;;4.07;;
13234;SDS011;6683;48.506;9.050;2023-01-28T16:07:41;4.57;;;3.93;;
13234;SDS011;6683;48.506;9.050;2023-01-28T16:10:50;5.30;;;3.90;;
13234;SDS011;6683;48.506;9.050;2023-01-28T16:13:54;7.23;;;4.83;;
13234;SDS011;6683;48.506;9.050;2023-01-28T16:16:57;5.97;;;4.53;;
13234;SDS011;6683;48.506;9.050;2023-01-28T16:20:02;6.17;;;4.80;;
13234;SDS011;6683;48.506;9.050;2023-01-28T16:23:12;7.20;;;4.87;;
13234;SDS011;6683;48.506;9.050;2023-01-28T16:26:23;6.57;;;4.63;;
13234;SDS011;6683;48.506;9.050;2023-01-28T16:29:27;5.17;;;4.13;;
13234;SDS011;6683;48.506;9.050;2023-01-28T16:32:34;8.17;;;5.03;;
13234;SDS011;6683;48.506;9.050;2023-01-28T16:35:43;8.27;;;5.27;;
13234;SDS011;6683;48.506;9.050;2023-01-28T16:38:45;8.50;;;4.73;;
13234;SDS011;6683;48.506;9.050;2023-01-28T16:41:48;6.53;;;4.43;;
13234;SDS011;6683;48.506;9.050;2023-01-28T16:44:51;8.17;;;5.23;;
13234;SDS011;6683;48.506;9.050;2023-01-28T16:47:53;7.23;;;4.87;;
13234;SDS011;6683;48.506;9.050;2023-01-28T16:50:56;6.83;;;4.63;;
13234;SDS011;6683;48.506;9.050;2023-01-28T16:53:59;7.33;;;5.10;;
13234;SDS011;6683;48.506;9.050;2023-01-28T16:57:02;6.10;;;4.47;;
13234;SDS011;6683;48.506;9.050;2023-01-28T17:00:06;7.23;;;5.03;;
13234;SDS011;6683;48.506;9.050;2023-01-28T17:03:16;6.33;;;4.70;;
13234;SDS011;6683;48.506;9.050;2023-01-28T17:06:20;6.13;;;4.93;;
13234;SDS011;6683;48.506;9.050;2023-01-28T17:09:22;6.43;;;4.87;;
13234;SDS011;6683;48.506;9.050;2023-01-28T17:12:25;6.37;;;5.13;;
13234;SDS011;6683;48.506;9.050;2023-01-28T17:15:28;6.60;;;4.93;;
13234;SDS011;6683;48.506;9.050;2023-01-28T17:18:30;6.80;;;5.40;;
13234;SDS011;6683;48.506;9.050;2023-01-28T17:21:34;6.00;;;5.20;;
13234;SDS011;6683;48.506;9.050;2023-01-28T17:24:37;7.03;;;4.60;;
13234;SDS011;6683;48.506;9.050;2023-01-28T17:27:39;6.30;;;5.00;;
13234;SDS011;6683;48.506;9.050;2023-01-28T17:30:42;4.70;;;4.20;;
13234;SDS011;6683;48.506;9.050;2023-01-28T17:33:44;6.83;;;4.87;;
13234;SDS011;6683;48.506;9.050;2023-01-28T17:36:49;6.60;;;4.53;;
13234;SDS011;6683;48.506;9.050;2023-01-28T17:39:51;7.70;;;5.17;;
13234;SDS011;6683;48.506;9.050;2023-01-28T17:42:54;7.60;;;5.80;;
13234;SDS011;6683;48.506;9.050;2023-01-28T17:45:56;8.13;;;5.80;;
13234;SDS011;6683;48.506;9.050;2023-01-28T17:49:00;5.40;;;4.70;;
13234;SDS011;6683;48.506;9.050;2023-01-28T17:52:04;7.53;;;4.90;;
13234;SDS011;6683;48.506;9.050;2023-01-28T17:55:07;7.40;;;4.80;;
13234;SDS011;6683;48.506;9.050;2023-01-28T17:58:11;6.07;;;4.50;;
13234;SDS011;6683;48.506;9.050;2023-01-28T18:01:13;8.33;;;4.63;;
13234;SDS011;6683;48.506;9.050;2023-01-28T18:04:15;5.60;;;4.63;;
13234;SDS011;6683;48.506;9.050;2023-01-28T18:07:19;6.10;;;4.73;;
13234;SDS011;6683;48.506;9.050;2023-01-28T18:10:22;6.40;;;5.37;;
13234;SDS011;6683;48.506;9.050;2023-01-28T18:13:24;8.00;;;5.13;;
13234;SDS011;6683;48.506;9.050;2023-01-28T18:16:26;6.87;;;4.53;;
13234;SDS011;6683;48.506;9.050;2023-01-28T18:19:29;5.70;;;4.77;;
13234;SDS011;6683;48.506;9.050;2023-01-28T18:22:33;9.27;;;6.23;;
13234;SDS011;6683;48.506;9.050;2023-01-28T18:25:35;6.33;;;5.40;;
13234;SDS011;6683;48.506;9.050;2023-01-28T18:28:38;8.23;;;6.03;;
13234;SDS011;6683;48.506;9.050;2023-01-28T18:31:40;8.50;;;5.83;;
13234;SDS011;6683;48.506;9.050;2023-01-28T18:34:43;6.53;;;5.17;;
13234;SDS011;6683;48.506;9.050;2023-01-28T18:37:47;5.77;;;5.00;;
13234;SDS011;6683;48.506;9.050;2023-01-28T18:40:52;8.13;;;5.80;;
13234;SDS011;6683;48.506;9.050;2023-01-28T18:43:56;7.20;;;5.27;;
13234;SDS011;6683;48.506;9.050;2023-01-28T18:46:58;5.80;;;4.67;;
13234;SDS011;6683;48.506;9.050;2023-01-28T18:50:01;6.13;;;4.50;;
13234;SDS011;6683;48.506;9.050;2023-01-28T18:53:05;5.97;;;4.60;;
13234;SDS011;6683;48.506;9.050;2023-01-28T18:56:08;6.43;;;4.43;;
13234;SDS011;6683;48.506;9.050;2023-01-28T18:59:11;5.27;;;4.60;;
13234;SDS011;6683;48.506;9.050;2023-01-28T19:02:15;7.03;;;5.00;;
13234;SDS011;6683;48.506;9.050;2023-01-28T19:05:17;6.23;;;4.90;;
13234;SDS011;6683;48.506;9.050;2023-01-28T19:08:21;7.70;;;5.10;;
13234;SDS011;6683;48.506;9.050;2023-01-28T19:11:24;8.37;;;5.53;;
13234;SDS011;6683;48.506;9.050;2023-01-28T19:14:28;7.00;;;5.50;;
13234;SDS011;6683;48.506;9.050;2023-01-28T19:17:31;6.63;;;4.93;;